Impacts METAR Board INFO
IDs:

KSAN - San Diego Intl Arpt, CA, US

Updated at: 0827 UTC 22 Jan 2018
Potential Impact None Slight Moderate High
Time21/20Z 21/21Z 21/22Z 21/23Z 22/00Z 22/01Z 22/02Z 22/03Z 22/04Z 22/05Z 22/06Z 22/07Z 22/08Z
VIS10 10 10 10 10 10 10 10 10 10 10 10 10
CIG250 250 250 250 250 250 250 250 250 250 250 250 250
CoverBKNBKNBKNBKNBKNBKNBKNBKNBKNBKNBKNBKNBKN
FltCatVFRVFRVFRVFRVFRVFRVFRVFRVFRVFRVFRVFRVFR
WX--------------------------
WDir25031028032031030032035003503103300
WSpd7 6 7 8 7 5 4 4 0 3 3 3 0
WGst-- -- -- -- -- -- -- -- -- -- -- -- --
Raw hourly METARs
KSAN 211951Z 25007KT 10SM BKN250 17/02 A3029 RMK AO2 SLP257 T01670022 $
KSAN 212051Z 31006KT 10SM BKN250 17/04 A3028 RMK AO2 SLP252 T01670039 58016 $
KSAN 212151Z 28007KT 10SM BKN250 17/04 A3027 RMK AO2 SLP249 T01670044 $
KSAN 212251Z 32008KT 10SM BKN250 17/06 A3026 RMK AO2 SLP247 T01670056 $
KSAN 212351Z 31007KT 10SM BKN250 16/04 A3027 RMK AO2 SLP249 T01610039 10172 20133 55002 $
KSAN 220051Z 30005KT 10SM BKN250 16/04 A3027 RMK AO2 SLP250 T01560039 $
KSAN 220151Z 32004KT 10SM BKN250 14/04 A3028 RMK AO2 SLP253 T01440044 $
KSAN 220251Z 35004KT 10SM BKN250 14/04 A3028 RMK AO2 SLP253 T01440044 52004 $
KSAN 220351Z 00000KT 10SM BKN250 13/04 A3029 RMK AO2 SLP256 T01330039 $
KSAN 220451Z 35003KT 10SM BKN250 13/03 A3029 RMK AO2 SLP256 T01280033 $
KSAN 220551Z 31003KT 10SM BKN250 12/03 A3028 RMK AO2 SLP253 T01170033 10161 20117 50000 $
KSAN 220651Z 33003KT 10SM BKN250 12/03 A3029 RMK AO2 SLP256 T01170028 $
KSAN 220751Z 00000KT 10SM BKN250 11/02 A3028 RMK AO2 SLP253 T01060022 401720089 $